createdAt,value
2023-04-01T00:04:49.027Z,14.04
2023-04-01T00:09:52.704Z,15.12
2023-04-01T00:14:55.854Z,15.57
2023-04-01T00:19:59.338Z,15.18
2023-04-01T00:25:03.184Z,13.31
2023-04-01T00:30:07.493Z,12.05
2023-04-01T00:35:12.041Z,11.20
2023-04-01T00:40:47.650Z,11.53
2023-04-01T00:45:51.632Z,13.88
2023-04-01T00:51:12.748Z,15.07
2023-04-01T00:56:28.010Z,15.82
2023-04-01T01:01:33.389Z,15.20
2023-04-01T01:06:49.126Z,13.09
2023-04-01T01:12:38.963Z,11.65
2023-04-01T01:18:05.253Z,12.02
2023-04-01T01:23:23.514Z,14.00
2023-04-01T01:29:13.440Z,14.88
2023-04-01T01:34:34.033Z,15.48
2023-04-01T01:39:38.587Z,14.86
2023-04-01T01:44:46.890Z,12.68
2023-04-01T01:49:53.158Z,11.21
2023-04-01T01:54:59.011Z,11.24
2023-04-01T02:00:15.654Z,13.25
2023-04-01T02:05:25.767Z,14.41
2023-04-01T02:10:35.132Z,15.03
2023-04-01T02:15:47.384Z,15.38
2023-04-01T02:20:52.192Z,14.69
2023-04-01T02:25:56.308Z,12.66
2023-04-01T02:31:03.664Z,11.34
2023-04-01T02:36:13.232Z,11.36
2023-04-01T02:41:16.395Z,13.35
2023-04-01T02:46:19.567Z,14.36
2023-04-01T02:51:22.888Z,14.95
2023-04-01T02:56:27.324Z,15.36
2023-04-01T03:01:30.460Z,14.91
2023-04-01T03:06:33.744Z,12.82
2023-04-01T03:11:36.854Z,11.34
2023-04-01T03:16:40.023Z,11.26
2023-04-01T03:21:43.267Z,13.12
2023-04-01T03:26:46.629Z,14.15
2023-04-01T03:31:49.886Z,14.64
2023-04-01T03:36:53.919Z,14.90
2023-04-01T03:41:56.930Z,15.14
2023-04-01T03:47:00.574Z,15.04
2023-04-01T03:52:04.054Z,15.05
2023-04-01T03:57:07.506Z,14.92
2023-04-01T04:02:11.028Z,14.06
2023-04-01T04:07:14.651Z,11.81
2023-04-01T04:12:17.710Z,11.91
2023-04-01T04:17:20.724Z,13.72
2023-04-01T04:22:24.028Z,14.51
2023-04-01T04:27:27.132Z,14.77
2023-04-01T04:32:31.910Z,14.86
2023-04-01T04:37:34.986Z,14.42
2023-04-01T04:42:37.993Z,12.21
2023-04-01T04:47:41.313Z,12.66
2023-04-01T04:52:44.453Z,13.71
2023-04-01T04:57:47.612Z,14.21
2023-04-01T05:02:50.773Z,14.65
2023-04-01T05:07:54.026Z,14.81
2023-04-01T05:12:57.268Z,14.84
2023-04-01T05:18:00.411Z,14.93
2023-04-01T05:23:03.997Z,14.97
2023-04-01T05:28:07.076Z,14.82
2023-04-01T05:33:12.302Z,12.73
2023-04-01T05:38:16.046Z,10.99
2023-04-01T05:43:19.063Z,10.89
2023-04-01T05:48:22.464Z,12.75
2023-04-01T05:53:25.571Z,13.65
2023-04-01T05:58:28.685Z,14.18
2023-04-01T06:03:32.259Z,14.50
2023-04-01T06:08:35.523Z,14.73
2023-04-01T06:13:54.131Z,14.08
2023-04-01T06:19:18.580Z,11.84
2023-04-01T06:24:43.502Z,10.96
2023-04-01T06:30:23.675Z,12.76
2023-04-01T06:35:39.959Z,13.84
2023-04-01T06:41:21.502Z,14.27
2023-04-01T06:47:00.416Z,14.57
2023-04-01T06:52:48.828Z,14.59
2023-04-01T06:57:56.629Z,12.41
2023-04-01T07:03:30.433Z,10.48
2023-04-01T07:08:41.682Z,10.71
2023-04-01T07:13:56.020Z,12.42
2023-04-01T07:19:43.260Z,13.20
2023-04-01T07:24:47.854Z,13.76
2023-04-01T07:29:50.911Z,14.10
2023-04-01T07:35:24.227Z,14.32
2023-04-01T07:40:51.628Z,14.35
2023-04-01T07:46:36.517Z,14.40
2023-04-01T07:51:44.711Z,14.42
2023-04-01T07:57:21.961Z,14.25
2023-04-01T08:02:49.663Z,11.95
2023-04-01T08:08:20.990Z,11.44
2023-04-01T08:14:01.453Z,13.26
2023-04-01T08:20:01.400Z,14.00
2023-04-01T08:25:15.198Z,14.40
2023-04-01T08:30:28.310Z,13.65
2023-04-01T08:35:45.227Z,11.32
2023-04-01T08:41:51.311Z,10.97
2023-04-01T08:47:42.308Z,13.08
2023-04-01T08:53:13.822Z,13.88
2023-04-01T08:58:47.937Z,14.05
2023-04-01T09:04:18.133Z,11.96
2023-04-01T09:09:49.342Z,11.75
2023-04-01T09:15:42.169Z,13.80
2023-04-01T09:21:03.977Z,14.84
2023-04-01T09:26:25.206Z,14.44
2023-04-01T09:31:46.349Z,12.27
2023-04-01T09:37:08.097Z,11.09
2023-04-01T09:42:14.153Z,12.23
2023-04-01T09:47:48.318Z,13.73
2023-04-01T09:53:15.880Z,14.29
2023-04-01T09:58:43.709Z,13.56
2023-04-01T10:04:31.392Z,11.37
2023-04-01T10:10:24.266Z,12.50
2023-04-01T10:15:45.898Z,13.66
2023-04-01T10:21:16.155Z,14.34
2023-04-01T10:27:06.869Z,12.77
2023-04-01T10:32:47.180Z,10.83
2023-04-01T10:38:41.867Z,11.93
2023-04-01T10:44:09.442Z,13.64
2023-04-01T10:49:33.845Z,14.33
2023-04-01T10:55:05.848Z,13.29
2023-04-01T11:01:00.427Z,11.33
2023-04-01T11:06:50.663Z,12.00
2023-04-01T11:12:41.787Z,13.60
2023-04-01T11:18:29.437Z,14.29
2023-04-01T11:24:06.243Z,13.19
2023-04-01T11:29:58.866Z,11.19
2023-04-01T11:35:44.135Z,12.21
2023-04-01T11:41:12.103Z,13.74
2023-04-01T11:46:34.930Z,14.05
2023-04-01T11:52:02.533Z,12.03
2023-04-01T11:57:54.018Z,11.63
2023-04-01T12:03:38.236Z,13.40
2023-04-01T12:09:21.191Z,12.94
2023-04-01T12:14:48.878Z,10.85
2023-04-01T12:19:58.224Z,11.08
2023-04-01T12:25:40.052Z,12.92
2023-04-01T12:31:16.728Z,13.90
2023-04-01T12:36:53.425Z,13.03
2023-04-01T12:42:23.872Z,11.21
2023-04-01T12:47:49.311Z,12.46
2023-04-01T12:53:30.707Z,13.63
2023-04-01T12:59:08.741Z,13.16
2023-04-01T13:04:46.461Z,11.14
2023-04-01T13:10:15.052Z,11.33
2023-04-01T13:15:57.227Z,13.04
2023-04-01T13:21:28.540Z,13.84
2023-04-01T13:26:55.117Z,13.45
2023-04-01T13:32:13.571Z,11.34
2023-04-01T13:37:50.885Z,10.53
2023-04-01T13:43:41.136Z,12.37
2023-04-01T13:49:08.977Z,13.64
2023-04-01T13:54:55.590Z,12.98
2023-04-01T14:00:12.527Z,10.58
2023-04-01T14:05:46.456Z,11.35
2023-04-01T14:11:21.341Z,12.74
2023-04-01T14:16:53.085Z,13.38
2023-04-01T14:22:33.881Z,13.76
2023-04-01T14:28:11.812Z,13.83
2023-04-01T14:33:51.969Z,11.66
2023-04-01T14:39:29.177Z,10.67
2023-04-01T14:45:07.516Z,12.03
2023-04-01T14:50:19.491Z,12.55
2023-04-01T14:55:39.629Z,12.66
2023-04-01T15:01:04.251Z,12.67
2023-04-01T15:07:08.586Z,12.53
2023-04-01T15:13:19.901Z,12.55
2023-04-01T15:19:14.708Z,12.72
2023-04-01T15:24:28.202Z,12.78
2023-04-01T15:30:06.083Z,12.80
2023-04-01T15:35:27.320Z,12.64
2023-04-01T15:41:05.249Z,12.57
2023-04-01T15:46:49.025Z,12.72
2023-04-01T15:52:16.068Z,12.81
2023-04-01T15:57:53.595Z,12.93
2023-04-01T16:03:53.994Z,12.49
2023-04-01T16:09:17.814Z,12.49
2023-04-01T16:15:01.266Z,12.59
2023-04-01T16:20:19.521Z,12.51
2023-04-01T16:25:48.521Z,12.36
2023-04-01T16:31:28.010Z,12.41
2023-04-01T16:36:52.826Z,12.52
2023-04-01T16:42:26.135Z,12.32
2023-04-01T16:47:47.005Z,12.27
2023-04-01T16:53:12.678Z,11.94
2023-04-01T16:58:28.554Z,11.98
2023-04-01T17:03:45.443Z,12.11
2023-04-01T17:09:32.776Z,11.61
2023-04-01T17:14:59.528Z,9.16
2023-04-01T17:20:28.853Z,9.88
2023-04-01T17:26:35.140Z,10.78
2023-04-01T17:31:47.284Z,11.29
2023-04-01T17:37:24.685Z,11.42
2023-04-01T17:43:03.208Z,11.38
2023-04-01T17:48:34.584Z,11.45
2023-04-01T17:54:06.309Z,11.56
2023-04-01T17:59:19.797Z,10.54
2023-04-01T18:05:08.072Z,8.57
2023-04-01T18:10:41.424Z,9.83
2023-04-01T18:16:03.970Z,10.58
2023-04-01T18:21:25.687Z,10.89
2023-04-01T18:26:38.538Z,11.08
2023-04-01T18:31:54.736Z,11.13
2023-04-01T18:37:20.793Z,11.17
2023-04-01T18:42:49.078Z,10.11
2023-04-01T18:48:06.355Z,7.66
2023-04-01T18:53:37.787Z,8.68
2023-04-01T18:58:59.423Z,10.16
2023-04-01T19:04:24.252Z,10.67
2023-04-01T19:09:47.331Z,10.94
2023-04-01T19:15:24.207Z,10.58
2023-04-01T19:20:58.506Z,8.01
2023-04-01T19:26:15.032Z,7.49
2023-04-01T19:31:41.613Z,9.40
2023-04-01T19:37:03.573Z,10.26
2023-04-01T19:42:28.813Z,10.68
2023-04-01T19:47:37.850Z,10.96
2023-04-01T19:52:44.846Z,9.24
2023-04-01T19:58:02.079Z,8.10
2023-04-01T20:03:27.824Z,9.58
2023-04-01T20:09:05.124Z,10.34
2023-04-01T20:14:37.937Z,10.82
2023-04-01T20:19:53.642Z,9.91
2023-04-01T20:25:11.446Z,7.81
2023-04-01T20:30:38.346Z,9.05
2023-04-01T20:36:13.863Z,9.92
2023-04-01T20:41:46.722Z,10.18
2023-04-01T20:47:03.983Z,10.34
2023-04-01T20:52:50.897Z,10.33
2023-04-01T20:58:12.458Z,9.31
2023-04-01T21:04:00.164Z,7.36
2023-04-01T21:09:47.215Z,8.87
2023-04-01T21:15:21.592Z,9.97
2023-04-01T21:20:37.324Z,10.56
2023-04-01T21:26:26.671Z,9.84
2023-04-01T21:32:25.405Z,7.09
2023-04-01T21:38:05.633Z,7.06
2023-04-01T21:43:39.787Z,9.21
2023-04-01T21:49:06.236Z,9.85
2023-04-01T21:54:36.881Z,10.19
2023-04-01T22:00:17.589Z,9.83
2023-04-01T22:05:38.094Z,7.34
2023-04-01T22:11:18.155Z,6.89
2023-04-01T22:16:55.861Z,8.87
2023-04-01T22:22:47.298Z,9.75
2023-04-01T22:28:07.998Z,9.97
2023-04-01T22:33:34.482Z,10.20
2023-04-01T22:39:15.585Z,8.52
2023-04-01T22:44:38.662Z,6.17
2023-04-01T22:50:26.606Z,6.70
2023-04-01T22:55:35.909Z,8.71
2023-04-01T23:00:55.983Z,9.39
2023-04-01T23:06:03.051Z,9.73
2023-04-01T23:11:11.538Z,9.38
2023-04-01T23:16:15.600Z,6.96
2023-04-01T23:21:44.594Z,6.19
2023-04-01T23:27:36.263Z,7.90
2023-04-01T23:32:39.341Z,9.13
2023-04-01T23:37:42.551Z,9.62
2023-04-01T23:42:45.817Z,9.65
2023-04-01T23:47:51.665Z,7.48
2023-04-01T23:53:05.021Z,5.65
2023-04-01T23:58:08.476Z,5.59
